UMMM/MHP METAR and TAF weather

Enter ICAO airport designator
Station Type Date Time Source
UMMM METAR 2018/06/29 14:00 UTC NOAA

UMMM 291400Z 30003MPS 9999 FEW040 BKN200 27/11 Q1007 RMK QFE735


Station Type Date Time Source
UMMM Decoded METAR 2018/06/29 14:00 UTC NOAA

Loshitsa / Minsk International 1, Belarus (UMMM) 53-51-54N 027-32-30E
Jun 29, 2018 - 10:00 AM EDT / 2018.06.29 1400 UTC
Wind: from the WNW (300 degrees) at 7 MPH (6 KT):0
Visibility: greater than 7 mile(s):0
Sky conditions: mostly cloudy
Temperature: 80 F (27 C)
Dew Point: 51 F (11 C)
Relative Humidity: 36%
Pressure (altimeter): 29.74 in. Hg (1007 hPa)
ob: UMMM 291400Z 30003MPS 9999 FEW040 BKN200 27/11 Q1007 RMK QFE735
cycle: 14

Station Type Date Time Source
UMMM TAF 2016/01/23 06:00 UTC NOAA

TAF UMMM 230500Z 2306/2315 33006MPS 6000 -SN BKN012
TEMPO 2306/2310 2000 SN BR BKN007


Example: see airport list